Aviation Digital Data Service (ADDS)

Output produced by METARs form (0537 UTC 21 January 2019)
found at http://www.aviationweather.gov/metar/data/
 
METAR text: ZJSY 210500Z 08008MPS 9999 BKN060 29/17 Q1018 NOSIG
Conditions at: ZJSY (SANYA/FENGHUANG , CN) observed 0500 UTC 21 January 2019
Temperature: 29.0°C (84°F)
Dewpoint: 17.0°C (63°F) [RH = 48%]
Pressure (altimeter): 30.06 inches Hg (1018.0 mb)
Winds: from the E (80 degrees) at 18 MPH (16 knots; 8.2 m/s)
Visibility: 6 or more miles (10+ km)
Ceiling: 6000 feet AGL
Clouds: broken clouds at 6000 feet AGL
Weather: no significant weather observed at this time

METAR text: ZJSY 210400Z 08008MPS 9999 BKN060 26/17 Q1019 NOSIG
Conditions at: ZJSY (SANYA/FENGHUANG , CN) observed 0400 UTC 21 January 2019
Temperature: 26.0°C (79°F)
Dewpoint: 17.0°C (63°F) [RH = 58%]
Pressure (altimeter): 30.09 inches Hg (1019.0 mb)
Winds: from the E (80 degrees) at 18 MPH (16 knots; 8.2 m/s)
Visibility: 6 or more miles (10+ km)
Ceiling: 6000 feet AGL
Clouds: broken clouds at 6000 feet AGL
Weather: no significant weather observed at this time

METAR text: ZJSY 210300Z 08007MPS 9999 SCT050 27/17 Q1020 NOSIG
Conditions at: ZJSY (SANYA/FENGHUANG , CN) observed 0300 UTC 21 January 2019
Temperature: 27.0°C (81°F)
Dewpoint: 17.0°C (63°F) [RH = 54%]
Pressure (altimeter): 30.12 inches Hg (1020.0 mb)
Winds: from the E (80 degrees) at 16 MPH (14 knots; 7.2 m/s)
Visibility: 6 or more miles (10+ km)
Ceiling: at least 12,000 feet AGL
Clouds: scattered clouds at 5000 feet AGL
Weather: no significant weather observed at this time

METAR text: ZJSY 210200Z 09005MPS 050V120 9999 SCT050 25/17 Q1019 NOSIG
Conditions at: ZJSY (SANYA/FENGHUANG , CN) observed 0200 UTC 21 January 2019
Temperature: 25.0°C (77°F)
Dewpoint: 17.0°C (63°F) [RH = 61%]
Pressure (altimeter): 30.09 inches Hg (1019.0 mb)
Winds: from the E (90 degrees) at 12 MPH (10 knots; 5.1 m/s)
Visibility: 6 or more miles (10+ km)
Ceiling: at least 12,000 feet AGL
Clouds: scattered clouds at 5000 feet AGL
Weather: no significant weather observed at this time

METAR text: ZJSY 210100Z 07005MPS 050V120 9999 SCT040 25/17 Q1018 NOSIG
Conditions at: ZJSY (SANYA/FENGHUANG , CN) observed 0100 UTC 21 January 2019
Temperature: 25.0°C (77°F)
Dewpoint: 17.0°C (63°F) [RH = 61%]
Pressure (altimeter): 30.06 inches Hg (1018.0 mb)
Winds: from the ENE (70 degrees) at 12 MPH (10 knots; 5.1 m/s)
Visibility: 6 or more miles (10+ km)
Ceiling: at least 12,000 feet AGL
Clouds: scattered clouds at 4000 feet AGL
Weather: no significant weather observed at this time

METAR text: ZJSY 210000Z 32002MPS CAVOK 21/18 Q1018 NOSIG
Conditions at: ZJSY (SANYA/FENGHUANG , CN) observed 0000 UTC 21 January 2019
Temperature: 21.0°C (70°F)
Dewpoint: 18.0°C (64°F) [RH = 83%]
Pressure (altimeter): 30.06 inches Hg (1018.0 mb)
Winds: from the NW (320 degrees) at 5 MPH (4 knots; 2.1 m/s)
Visibility: 6 or more miles (10+ km)
Ceiling: ceiling and visibility are OK
Clouds: unknown
Weather: no significant weather observed at this time

METAR text: ZJSY 202300Z VRB01MPS 9999 BKN070 21/18 Q1017 NOSIG
Conditions at: ZJSY (SANYA/FENGHUANG , CN) observed 2300 UTC 20 January 2019
Temperature: 21.0°C (70°F)
Dewpoint: 18.0°C (64°F) [RH = 83%]
Pressure (altimeter): 30.03 inches Hg (1017.0 mb)
Winds: variable direction winds at 2 MPH (2 knots; 1.0 m/s)
Visibility: 6 or more miles (10+ km)
Ceiling: 7000 feet AGL
Clouds: broken clouds at 7000 feet AGL
Weather: no significant weather observed at this time

METAR text: ZJSY 202200Z VRB01MPS 9999 BKN070 21/18 Q1016 NOSIG
Conditions at: ZJSY (SANYA/FENGHUANG , CN) observed 2200 UTC 20 January 2019
Temperature: 21.0°C (70°F)
Dewpoint: 18.0°C (64°F) [RH = 83%]
Pressure (altimeter): 30.00 inches Hg (1016.0 mb)
Winds: variable direction winds at 2 MPH (2 knots; 1.0 m/s)
Visibility: 6 or more miles (10+ km)
Ceiling: 7000 feet AGL
Clouds: broken clouds at 7000 feet AGL
Weather: no significant weather observed at this time

METAR text: ZJSY 202100Z 29001MPS 9999 BKN060 22/18 Q1015 NOSIG
Conditions at: ZJSY (SANYA/FENGHUANG , CN) observed 2100 UTC 20 January 2019
Temperature: 22.0°C (72°F)
Dewpoint: 18.0°C (64°F) [RH = 78%]
Pressure (altimeter): 29.97 inches Hg (1015.0 mb)
Winds: from the WNW (290 degrees) at 2 MPH (2 knots; 1.0 m/s)
Visibility: 6 or more miles (10+ km)
Ceiling: 6000 feet AGL
Clouds: broken clouds at 6000 feet AGL
Weather: no significant weather observed at this time

METAR text: ZJSY 202000Z VRB01MPS 9999 BKN050 22/17 Q1016 NOSIG
Conditions at: ZJSY (SANYA/FENGHUANG , CN) observed 2000 UTC 20 January 2019
Temperature: 22.0°C (72°F)
Dewpoint: 17.0°C (63°F) [RH = 73%]
Pressure (altimeter): 30.00 inches Hg (1016.0 mb)
Winds: variable direction winds at 2 MPH (2 knots; 1.0 m/s)
Visibility: 6 or more miles (10+ km)
Ceiling: 5000 feet AGL
Clouds: broken clouds at 5000 feet AGL
Weather: no significant weather observed at this time

METAR text: ZJSY 201900Z 07002MPS 9999 BKN050 22/18 Q1016 NOSIG
Conditions at: ZJSY (SANYA/FENGHUANG , CN) observed 1900 UTC 20 January 2019
Temperature: 22.0°C (72°F)
Dewpoint: 18.0°C (64°F) [RH = 78%]
Pressure (altimeter): 30.00 inches Hg (1016.0 mb)
Winds: from the ENE (70 degrees) at 5 MPH (4 knots; 2.1 m/s)
Visibility: 6 or more miles (10+ km)
Ceiling: 5000 feet AGL
Clouds: broken clouds at 5000 feet AGL
Weather: no significant weather observed at this time

METAR text: ZJSY 201800Z 35002MPS 9999 SCT050 22/18 Q1016 NOSIG
Conditions at: ZJSY (SANYA/FENGHUANG , CN) observed 1800 UTC 20 January 2019
Temperature: 22.0°C (72°F)
Dewpoint: 18.0°C (64°F) [RH = 78%]
Pressure (altimeter): 30.00 inches Hg (1016.0 mb)
Winds: from the N (350 degrees) at 5 MPH (4 knots; 2.1 m/s)
Visibility: 6 or more miles (10+ km)
Ceiling: at least 12,000 feet AGL
Clouds: scattered clouds at 5000 feet AGL
Weather: no significant weather observed at this time

METAR text: ZJSY 201700Z 10003MPS CAVOK 21/18 Q1017 NOSIG
Conditions at: ZJSY (SANYA/FENGHUANG , CN) observed 1700 UTC 20 January 2019
Temperature: 21.0°C (70°F)
Dewpoint: 18.0°C (64°F) [RH = 83%]
Pressure (altimeter): 30.03 inches Hg (1017.0 mb)
Winds: from the E (100 degrees) at 7 MPH (6 knots; 3.1 m/s)
Visibility: 6 or more miles (10+ km)
Ceiling: ceiling and visibility are OK
Clouds: unknown
Weather: no significant weather observed at this time

METAR text: ZJSY 201600Z 10005MPS 9999 SCT050 22/19 Q1017 NOSIG
Conditions at: ZJSY (SANYA/FENGHUANG , CN) observed 1600 UTC 20 January 2019
Temperature: 22.0°C (72°F)
Dewpoint: 19.0°C (66°F) [RH = 83%]
Pressure (altimeter): 30.03 inches Hg (1017.0 mb)
Winds: from the E (100 degrees) at 12 MPH (10 knots; 5.1 m/s)
Visibility: 6 or more miles (10+ km)
Ceiling: at least 12,000 feet AGL
Clouds: scattered clouds at 5000 feet AGL
Weather: no significant weather observed at this time

METAR text: ZJSY 201500Z VRB02MPS 9999 SCT050 23/20 Q1017 NOSIG
Conditions at: ZJSY (SANYA/FENGHUANG , CN) observed 1500 UTC 20 January 2019
Temperature: 23.0°C (73°F)
Dewpoint: 20.0°C (68°F) [RH = 83%]
Pressure (altimeter): 30.03 inches Hg (1017.0 mb)
Winds: variable direction winds at 5 MPH (4 knots; 2.1 m/s)
Visibility: 6 or more miles (10+ km)
Ceiling: at least 12,000 feet AGL
Clouds: scattered clouds at 5000 feet AGL
Weather: no significant weather observed at this time

METAR text: ZJSY 201400Z 08003MPS 9999 FEW016 BKN040 23/20 Q1016 NOSIG
Conditions at: ZJSY (SANYA/FENGHUANG , CN) observed 1400 UTC 20 January 2019
Temperature: 23.0°C (73°F)
Dewpoint: 20.0°C (68°F) [RH = 83%]
Pressure (altimeter): 30.00 inches Hg (1016.0 mb)
Winds: from the E (80 degrees) at 7 MPH (6 knots; 3.1 m/s)
Visibility: 6 or more miles (10+ km)
Ceiling: 4000 feet AGL
Clouds: few clouds at 1600 feet AGL
broken clouds at 4000 feet AGL
Weather: no significant weather observed at this time

METAR text: ZJSY 201300Z 10004MPS 9999 FEW018 BKN040 24/20 Q1016 NOSIG
Conditions at: ZJSY (SANYA/FENGHUANG , CN) observed 1300 UTC 20 January 2019
Temperature: 24.0°C (75°F)
Dewpoint: 20.0°C (68°F) [RH = 78%]
Pressure (altimeter): 30.00 inches Hg (1016.0 mb)
Winds: from the E (100 degrees) at 9 MPH (8 knots; 4.1 m/s)
Visibility: 6 or more miles (10+ km)
Ceiling: 4000 feet AGL
Clouds: few clouds at 1800 feet AGL
broken clouds at 4000 feet AGL
Weather: no significant weather observed at this time

METAR text: ZJSY 201200Z 24001MPS 9999 BKN036 24/21 Q1015 NOSIG
Conditions at: ZJSY (SANYA/FENGHUANG , CN) observed 1200 UTC 20 January 2019
Temperature: 24.0°C (75°F)
Dewpoint: 21.0°C (70°F) [RH = 83%]
Pressure (altimeter): 29.97 inches Hg (1015.0 mb)
Winds: from the WSW (240 degrees) at 2 MPH (2 knots; 1.0 m/s)
Visibility: 6 or more miles (10+ km)
Ceiling: 3600 feet AGL
Clouds: broken clouds at 3600 feet AGL
Weather: no significant weather observed at this time

METAR text: ZJSY 201100Z 23002MPS 190V260 9999 BKN043 24/21 Q1015 NOSIG
Conditions at: ZJSY (SANYA/FENGHUANG , CN) observed 1100 UTC 20 January 2019
Temperature: 24.0°C (75°F)
Dewpoint: 21.0°C (70°F) [RH = 83%]
Pressure (altimeter): 29.97 inches Hg (1015.0 mb)
Winds: from the SW (230 degrees) at 5 MPH (4 knots; 2.1 m/s)
Visibility: 6 or more miles (10+ km)
Ceiling: 4300 feet AGL
Clouds: broken clouds at 4300 feet AGL
Weather: no significant weather observed at this time

METAR text: ZJSY 201000Z 20003MPS 160V240 9999 SCT060 25/20 Q1015 BECMG AT1150 09005MPS
Conditions at: ZJSY (SANYA/FENGHUANG , CN) observed 1000 UTC 20 January 2019
Temperature: 25.0°C (77°F)
Dewpoint: 20.0°C (68°F) [RH = 74%]
Pressure (altimeter): 29.97 inches Hg (1015.0 mb)
Winds: from the SSW (200 degrees) at 7 MPH (6 knots; 3.1 m/s)
Visibility: 6 or more miles (10+ km)
Ceiling: at least 12,000 feet AGL
Clouds: scattered clouds at 6000 feet AGL
Weather: no significant weather observed at this time

METAR text: ZJSY 200900Z 21003MPS 170V240 9999 SCT060 25/20 Q1014 BECMG AT1050 09005MPS
Conditions at: ZJSY (SANYA/FENGHUANG , CN) observed 0900 UTC 20 January 2019
Temperature: 25.0°C (77°F)
Dewpoint: 20.0°C (68°F) [RH = 74%]
Pressure (altimeter): 29.94 inches Hg (1014.0 mb)
Winds: from the SSW (210 degrees) at 7 MPH (6 knots; 3.1 m/s)
Visibility: 6 or more miles (10+ km)
Ceiling: at least 12,000 feet AGL
Clouds: scattered clouds at 6000 feet AGL
Weather: no significant weather observed at this time

METAR text: ZJSY 200800Z 20004MPS 140V230 9999 FEW021 26/20 Q1014 NOSIG
Conditions at: ZJSY (SANYA/FENGHUANG , CN) observed 0800 UTC 20 January 2019
Temperature: 26.0°C (79°F)
Dewpoint: 20.0°C (68°F) [RH = 70%]
Pressure (altimeter): 29.94 inches Hg (1014.0 mb)
Winds: from the SSW (200 degrees) at 9 MPH (8 knots; 4.1 m/s)
Visibility: 6 or more miles (10+ km)
Ceiling: at least 12,000 feet AGL
Clouds: few clouds at 2100 feet AGL
Weather: no significant weather observed at this time

METAR text: ZJSY 200700Z 20003MPS 140V290 9999 FEW021 26/20 Q1014 NOSIG
Conditions at: ZJSY (SANYA/FENGHUANG , CN) observed 0700 UTC 20 January 2019
Temperature: 26.0°C (79°F)
Dewpoint: 20.0°C (68°F) [RH = 70%]
Pressure (altimeter): 29.94 inches Hg (1014.0 mb)
Winds: from the SSW (200 degrees) at 7 MPH (6 knots; 3.1 m/s)
Visibility: 6 or more miles (10+ km)
Ceiling: at least 12,000 feet AGL
Clouds: few clouds at 2100 feet AGL
Weather: no significant weather observed at this time

METAR text: ZJSY 200600Z 21004MPS CAVOK 26/21 Q1015 NOSIG
Conditions at: ZJSY (SANYA/FENGHUANG , CN) observed 0600 UTC 20 January 2019
Temperature: 26.0°C (79°F)
Dewpoint: 21.0°C (70°F) [RH = 74%]
Pressure (altimeter): 29.97 inches Hg (1015.0 mb)
Winds: from the SSW (210 degrees) at 9 MPH (8 knots; 4.1 m/s)
Visibility: 6 or more miles (10+ km)
Ceiling: ceiling and visibility are OK
Clouds: unknown
Weather: no significant weather observed at this time

METAR text: ZJSY 200500Z 24004MPS 200V260 9999 FEW050 27/21 Q1016 NOSIG
Conditions at: ZJSY (SANYA/FENGHUANG , CN) observed 0500 UTC 20 January 2019
Temperature: 27.0°C (81°F)
Dewpoint: 21.0°C (70°F) [RH = 70%]
Pressure (altimeter): 30.00 inches Hg (1016.0 mb)
Winds: from the WSW (240 degrees) at 9 MPH (8 knots; 4.1 m/s)
Visibility: 6 or more miles (10+ km)
Ceiling: at least 12,000 feet AGL
Clouds: few clouds at 5000 feet AGL
Weather: no significant weather observed at this time

METAR text: ZJSY 200400Z 25004MPS 210V280 CAVOK 27/19 Q1016 NOSIG
Conditions at: ZJSY (SANYA/FENGHUANG , CN) observed 0400 UTC 20 January 2019
Temperature: 27.0°C (81°F)
Dewpoint: 19.0°C (66°F) [RH = 62%]
Pressure (altimeter): 30.00 inches Hg (1016.0 mb)
Winds: from the WSW (250 degrees) at 9 MPH (8 knots; 4.1 m/s)
Visibility: 6 or more miles (10+ km)
Ceiling: ceiling and visibility are OK
Clouds: unknown
Weather: no significant weather observed at this time

METAR text: ZJSY 200300Z 22003MPS 190V250 CAVOK 26/19 Q1017 NOSIG
Conditions at: ZJSY (SANYA/FENGHUANG , CN) observed 0300 UTC 20 January 2019
Temperature: 26.0°C (79°F)
Dewpoint: 19.0°C (66°F) [RH = 65%]
Pressure (altimeter): 30.03 inches Hg (1017.0 mb)
Winds: from the SW (220 degrees) at 7 MPH (6 knots; 3.1 m/s)
Visibility: 6 or more miles (10+ km)
Ceiling: ceiling and visibility are OK
Clouds: unknown
Weather: no significant weather observed at this time

METAR text: ZJSY 200200Z 20002MPS 160V240 CAVOK 26/19 Q1017 NOSIG
Conditions at: ZJSY (SANYA/FENGHUANG , CN) observed 0200 UTC 20 January 2019
Temperature: 26.0°C (79°F)
Dewpoint: 19.0°C (66°F) [RH = 65%]
Pressure (altimeter): 30.03 inches Hg (1017.0 mb)
Winds: from the SSW (200 degrees) at 5 MPH (4 knots; 2.1 m/s)
Visibility: 6 or more miles (10+ km)
Ceiling: ceiling and visibility are OK
Clouds: unknown
Weather: no significant weather observed at this time

METAR text: ZJSY 200100Z VRB02MPS CAVOK 23/19 Q1017 BECMG AT0150 09005MPS
Conditions at: ZJSY (SANYA/FENGHUANG , CN) observed 0100 UTC 20 January 2019
Temperature: 23.0°C (73°F)
Dewpoint: 19.0°C (66°F) [RH = 78%]
Pressure (altimeter): 30.03 inches Hg (1017.0 mb)
Winds: variable direction winds at 5 MPH (4 knots; 2.1 m/s)
Visibility: 6 or more miles (10+ km)
Ceiling: ceiling and visibility are OK
Clouds: unknown
Weather: no significant weather observed at this time

METAR text: ZJSY 200000Z VRB02MPS CAVOK 21/18 Q1016 BECMG AT0050 09005MPS
Conditions at: ZJSY (SANYA/FENGHUANG , CN) observed 0000 UTC 20 January 2019
Temperature: 21.0°C (70°F)
Dewpoint: 18.0°C (64°F) [RH = 83%]
Pressure (altimeter): 30.00 inches Hg (1016.0 mb)
Winds: variable direction winds at 5 MPH (4 knots; 2.1 m/s)
Visibility: 6 or more miles (10+ km)
Ceiling: ceiling and visibility are OK
Clouds: unknown
Weather: no significant weather observed at this time

METAR text: ZJSY 192300Z VRB01MPS CAVOK 20/18 Q1016 BECMG AT0050 09005MPS
Conditions at: ZJSY (SANYA/FENGHUANG , CN) observed 2300 UTC 19 January 2019
Temperature: 20.0°C (68°F)
Dewpoint: 18.0°C (64°F) [RH = 88%]
Pressure (altimeter): 30.00 inches Hg (1016.0 mb)
Winds: variable direction winds at 2 MPH (2 knots; 1.0 m/s)
Visibility: 6 or more miles (10+ km)
Ceiling: ceiling and visibility are OK
Clouds: unknown
Weather: no significant weather observed at this time

METAR text: ZJSY 192200Z 32002MPS 9999 FEW050 20/18 Q1015 NOSIG
Conditions at: ZJSY (SANYA/FENGHUANG , CN) observed 2200 UTC 19 January 2019
Temperature: 20.0°C (68°F)
Dewpoint: 18.0°C (64°F) [RH = 88%]
Pressure (altimeter): 29.97 inches Hg (1015.0 mb)
Winds: from the NW (320 degrees) at 5 MPH (4 knots; 2.1 m/s)
Visibility: 6 or more miles (10+ km)
Ceiling: at least 12,000 feet AGL
Clouds: few clouds at 5000 feet AGL
Weather: no significant weather observed at this time

METAR text: ZJSY 192100Z 11002MPS 9999 FEW033 20/19 Q1015 NOSIG
Conditions at: ZJSY (SANYA/FENGHUANG , CN) observed 2100 UTC 19 January 2019
Temperature: 20.0°C (68°F)
Dewpoint: 19.0°C (66°F) [RH = 94%]
Pressure (altimeter): 29.97 inches Hg (1015.0 mb)
Winds: from the ESE (110 degrees) at 5 MPH (4 knots; 2.1 m/s)
Visibility: 6 or more miles (10+ km)
Ceiling: at least 12,000 feet AGL
Clouds: few clouds at 3300 feet AGL
Weather: no significant weather observed at this time

METAR text: ZJSY 192000Z 33002MPS 280V060 9999 SCT033 21/19 Q1016 NOSIG
Conditions at: ZJSY (SANYA/FENGHUANG , CN) observed 2000 UTC 19 January 2019
Temperature: 21.0°C (70°F)
Dewpoint: 19.0°C (66°F) [RH = 88%]
Pressure (altimeter): 30.00 inches Hg (1016.0 mb)
Winds: from the NNW (330 degrees) at 5 MPH (4 knots; 2.1 m/s)
Visibility: 6 or more miles (10+ km)
Ceiling: at least 12,000 feet AGL
Clouds: scattered clouds at 3300 feet AGL
Weather: no significant weather observed at this time

METAR text: ZJSY 191900Z 32002MPS CAVOK 21/19 Q1016 NOSIG
Conditions at: ZJSY (SANYA/FENGHUANG , CN) observed 1900 UTC 19 January 2019
Temperature: 21.0°C (70°F)
Dewpoint: 19.0°C (66°F) [RH = 88%]
Pressure (altimeter): 30.00 inches Hg (1016.0 mb)
Winds: from the NW (320 degrees) at 5 MPH (4 knots; 2.1 m/s)
Visibility: 6 or more miles (10+ km)
Ceiling: ceiling and visibility are OK
Clouds: unknown
Weather: no significant weather observed at this time

METAR text: ZJSY 191800Z 35002MPS 320V020 CAVOK 21/19 Q1016 NOSIG
Conditions at: ZJSY (SANYA/FENGHUANG , CN) observed 1800 UTC 19 January 2019
Temperature: 21.0°C (70°F)
Dewpoint: 19.0°C (66°F) [RH = 88%]
Pressure (altimeter): 30.00 inches Hg (1016.0 mb)
Winds: from the N (350 degrees) at 5 MPH (4 knots; 2.1 m/s)
Visibility: 6 or more miles (10+ km)
Ceiling: ceiling and visibility are OK
Clouds: unknown
Weather: no significant weather observed at this time

Forecast for: ZJSY (SANYA/FENGHUANG , CN)
Text: TAF ZJSY 210300Z 2106/2206 09004MPS 9999 FEW020 SCT050 TX28/2106Z TN20/2121Z
Forecast period: 0600 UTC 21 January 2019 to 0600 UTC 22 January 2019
Forecast type: FROM: standard forecast or significant change
Winds: from the E (90 degrees) at 9 MPH (8 knots; 4.1 m/s)
Visibility: 6 or more miles 10+ km)
Ceiling: at least 12,000 feet AGL
Clouds: few clouds at 2000 feet AGL
scattered clouds at 5000 feet AGL
Weather: no significant weather forecast for this period